createdAt,value
2018-06-17T00:01:30.936Z,6.73
2018-06-17T00:03:59.238Z,5.73
2018-06-17T00:06:27.537Z,4.57
2018-06-17T00:08:55.841Z,7.37
2018-06-17T00:11:24.188Z,5.20
2018-06-17T00:13:52.524Z,7.70
2018-06-17T00:16:20.869Z,7.13
2018-06-17T00:18:49.190Z,6.00
2018-06-17T00:21:17.462Z,6.80
2018-06-17T00:23:45.469Z,5.00
2018-06-17T00:26:13.748Z,4.53
2018-06-17T00:28:42.045Z,4.73
2018-06-17T00:31:10.322Z,5.27
2018-06-17T00:33:38.627Z,11.80
2018-06-17T00:36:06.928Z,4.40
2018-06-17T00:38:35.247Z,5.87
2018-06-17T00:41:03.722Z,6.13
2018-06-17T00:43:32.037Z,8.93
2018-06-17T00:46:00.340Z,7.67
2018-06-17T00:48:28.662Z,6.60
2018-06-17T00:50:56.948Z,8.10
2018-06-17T00:53:25.208Z,2.87
2018-06-17T00:55:54.633Z,6.77
2018-06-17T00:58:22.969Z,7.30
2018-06-17T01:00:51.255Z,5.27
2018-06-17T01:03:19.509Z,6.47
2018-06-17T01:05:47.781Z,7.60
2018-06-17T01:08:16.100Z,9.57
2018-06-17T01:10:44.383Z,5.17
2018-06-17T01:13:12.646Z,6.30
2018-06-17T01:15:40.927Z,5.97
2018-06-17T01:18:09.223Z,4.97
2018-06-17T01:20:37.529Z,4.37
2018-06-17T01:23:05.832Z,5.37
2018-06-17T01:25:34.077Z,9.23
2018-06-17T01:28:02.180Z,8.27
2018-06-17T01:30:30.488Z,5.53
2018-06-17T01:32:58.820Z,8.10
2018-06-17T01:35:27.103Z,7.53
2018-06-17T01:37:55.405Z,7.13
2018-06-17T01:40:23.690Z,6.40
2018-06-17T01:42:51.962Z,6.43
2018-06-17T01:45:20.223Z,7.10
2018-06-17T01:47:48.499Z,4.90
2018-06-17T01:50:16.848Z,4.93
2018-06-17T01:52:45.136Z,5.43
2018-06-17T01:55:13.436Z,7.50
2018-06-17T01:57:41.724Z,6.00
2018-06-17T02:00:10.031Z,5.90
2018-06-17T02:02:38.342Z,7.67
2018-06-17T02:05:11.966Z,4.50
2018-06-17T02:07:45.657Z,5.83
2018-06-17T02:10:19.354Z,6.30
2018-06-17T02:12:47.644Z,4.97
2018-06-17T02:15:15.910Z,4.73
2018-06-17T02:17:44.243Z,6.77
2018-06-17T02:20:12.570Z,8.87
2018-06-17T02:22:40.932Z,6.73
2018-06-17T02:25:09.198Z,4.80
2018-06-17T02:27:37.486Z,4.53
2018-06-17T02:30:05.985Z,7.13
2018-06-17T02:32:34.270Z,6.37
2018-06-17T02:35:03.202Z,6.60
2018-06-17T02:37:32.103Z,7.47
2018-06-17T02:40:00.963Z,6.10
2018-06-17T02:42:29.596Z,6.73
2018-06-17T02:45:03.430Z,4.27
2018-06-17T02:47:37.719Z,4.40
2018-06-17T02:50:11.796Z,8.17
2018-06-17T02:52:46.108Z,4.37
2018-06-17T02:55:15.171Z,11.57
2018-06-17T02:57:44.105Z,8.30
2018-06-17T03:00:13.138Z,6.30
2018-06-17T03:02:42.088Z,5.23
2018-06-17T03:05:10.514Z,7.13
2018-06-17T03:07:38.758Z,3.67
2018-06-17T03:10:07.054Z,7.47
2018-06-17T03:12:35.389Z,5.10
2018-06-17T03:15:03.739Z,5.47
2018-06-17T03:17:32.095Z,8.10
2018-06-17T03:20:00.394Z,8.80
2018-06-17T03:22:28.667Z,6.83
2018-06-17T03:25:02.241Z,6.47
2018-06-17T03:27:35.916Z,8.77
2018-06-17T03:30:09.800Z,6.63
2018-06-17T03:32:43.546Z,8.77
2018-06-17T03:35:17.311Z,7.30
2018-06-17T03:37:45.556Z,11.63
2018-06-17T03:40:13.830Z,5.07
2018-06-17T03:42:42.116Z,6.27
2018-06-17T03:45:10.422Z,8.93
2018-06-17T03:47:38.687Z,7.97
2018-06-17T03:50:07.037Z,9.13
2018-06-17T03:52:35.355Z,10.30
2018-06-17T03:55:03.650Z,5.60
2018-06-17T03:57:31.944Z,11.10
2018-06-17T04:00:00.200Z,11.63
2018-06-17T04:02:28.545Z,7.53
2018-06-17T04:05:02.317Z,6.33
2018-06-17T04:07:30.682Z,5.67
2018-06-17T04:09:58.964Z,9.40
2018-06-17T04:12:27.292Z,6.77
2018-06-17T04:14:55.677Z,8.17
2018-06-17T04:17:23.936Z,7.10
2018-06-17T04:19:52.217Z,11.13
2018-06-17T04:22:20.554Z,5.73
2018-06-17T04:24:48.872Z,9.80
2018-06-17T04:27:17.156Z,8.30
2018-06-17T04:29:45.409Z,10.97
2018-06-17T04:32:13.709Z,6.67
2018-06-17T04:34:42.015Z,11.87
2018-06-17T04:37:10.340Z,9.13
2018-06-17T04:39:38.612Z,8.73
2018-06-17T04:42:06.920Z,10.27
2018-06-17T04:44:35.250Z,8.20
2018-06-17T04:47:03.559Z,8.03
2018-06-17T04:49:31.835Z,8.37
2018-06-17T04:52:00.285Z,8.20
2018-06-17T04:54:28.781Z,10.77
2018-06-17T04:56:57.077Z,8.77
2018-06-17T04:59:25.419Z,14.13
2018-06-17T05:01:53.725Z,9.87
2018-06-17T05:04:22.008Z,13.23
2018-06-17T05:06:50.297Z,10.13
2018-06-17T05:09:18.563Z,12.03
2018-06-17T05:11:46.961Z,12.87
2018-06-17T05:14:15.276Z,11.53
2018-06-17T05:16:43.557Z,11.30
2018-06-17T05:19:11.836Z,14.77
2018-06-17T05:21:40.156Z,10.93
2018-06-17T05:24:08.528Z,12.83
2018-06-17T05:26:36.837Z,13.13
2018-06-17T05:29:05.230Z,12.83
2018-06-17T05:31:33.617Z,11.47
2018-06-17T05:34:02.053Z,18.00
2018-06-17T05:36:30.364Z,8.67
2018-06-17T05:39:00.287Z,12.00
2018-06-17T05:41:28.770Z,12.10
2018-06-17T05:43:57.095Z,15.67
2018-06-17T05:46:25.375Z,10.57
2018-06-17T05:48:53.774Z,12.20
2018-06-17T05:51:22.081Z,12.17
2018-06-17T05:53:50.427Z,12.47
2018-06-17T05:56:18.708Z,13.60
2018-06-17T05:58:46.979Z,17.60
2018-06-17T06:01:15.271Z,15.70
2018-06-17T06:03:43.583Z,14.63
2018-06-17T06:06:12.078Z,13.80
2018-06-17T06:08:40.428Z,17.40
2018-06-17T06:11:08.681Z,13.30
2018-06-17T06:13:36.954Z,16.10
2018-06-17T06:16:05.513Z,16.63
2018-06-17T06:18:34.014Z,16.63
2018-06-17T06:21:02.363Z,24.37
2018-06-17T06:23:30.693Z,17.90
2018-06-17T06:25:58.992Z,21.73
2018-06-17T06:28:27.265Z,19.83
2018-06-17T06:30:55.673Z,13.43
2018-06-17T06:33:23.941Z,17.33
2018-06-17T06:35:52.246Z,17.73
2018-06-17T06:38:20.584Z,15.40
2018-06-17T06:40:48.888Z,13.67
2018-06-17T06:43:17.153Z,21.07
2018-06-17T06:45:45.437Z,16.57
2018-06-17T06:48:13.830Z,14.30
2018-06-17T06:50:42.148Z,20.57
2018-06-17T06:53:10.193Z,17.30
2018-06-17T06:55:38.528Z,16.17
2018-06-17T06:58:06.857Z,14.67
2018-06-17T07:00:35.167Z,16.40
2018-06-17T07:03:15.000Z,16.17
2018-06-17T07:05:48.794Z,18.97
2018-06-17T07:08:28.386Z,17.93
2018-06-17T07:10:56.670Z,15.87
2018-06-17T07:13:24.973Z,16.10
2018-06-17T07:16:04.721Z,16.70
2018-06-17T07:18:35.084Z,15.30
2018-06-17T07:21:03.454Z,15.13
2018-06-17T07:23:31.818Z,17.63
2018-06-17T07:26:45.395Z,15.20
2018-06-17T07:29:26.292Z,12.37
2018-06-17T07:31:54.694Z,15.70
2018-06-17T07:34:22.992Z,12.80
2018-06-17T07:36:51.279Z,12.43
2018-06-17T07:40:32.572Z,12.33
2018-06-17T07:43:00.890Z,10.77
2018-06-17T07:45:29.166Z,11.67
2018-06-17T07:47:57.475Z,14.97
2018-06-17T07:50:37.072Z,13.80
2018-06-17T07:53:14.419Z,16.40
2018-06-17T07:55:43.042Z,13.57
2018-06-17T07:58:11.360Z,7.10
2018-06-17T08:00:39.702Z,11.27
2018-06-17T08:03:08.029Z,14.23
2018-06-17T08:05:36.394Z,8.67
2018-06-17T08:08:04.760Z,11.67
2018-06-17T08:10:33.097Z,11.17
2018-06-17T08:13:01.422Z,9.47
2018-06-17T08:15:29.726Z,11.17
2018-06-17T08:17:58.048Z,12.63
2018-06-17T08:20:26.364Z,13.93
2018-06-17T08:22:54.689Z,7.87
2018-06-17T08:25:23.049Z,8.73
2018-06-17T08:27:51.372Z,10.20
2018-06-17T08:30:19.693Z,7.07
2018-06-17T08:32:48.026Z,11.27
2018-06-17T08:35:16.331Z,9.23
2018-06-17T08:37:44.637Z,14.27
2018-06-17T08:40:12.951Z,12.10
2018-06-17T08:42:41.348Z,9.10
2018-06-17T08:45:09.674Z,10.90
2018-06-17T08:47:38.060Z,11.03
2018-06-17T08:50:06.392Z,11.47
2018-06-17T08:52:34.743Z,8.77
2018-06-17T08:55:03.044Z,7.00
2018-06-17T08:57:31.371Z,10.37
2018-06-17T08:59:59.669Z,7.97
2018-06-17T09:02:28.114Z,11.97
2018-06-17T09:04:56.401Z,17.93
2018-06-17T09:07:24.684Z,13.23
2018-06-17T09:09:53.058Z,11.70
2018-06-17T09:12:21.385Z,13.70
2018-06-17T09:14:49.679Z,11.67
2018-06-17T09:17:18.037Z,10.40
2018-06-17T09:19:46.373Z,10.73
2018-06-17T09:22:14.689Z,9.20
2018-06-17T09:24:43.026Z,12.10
2018-06-17T09:27:11.375Z,10.07
2018-06-17T09:29:39.673Z,11.10
2018-06-17T09:32:08.063Z,9.07
2018-06-17T09:34:36.354Z,9.53
2018-06-17T09:37:04.704Z,9.60
2018-06-17T09:39:32.996Z,9.27
2018-06-17T09:42:01.336Z,12.13
2018-06-17T09:44:29.799Z,13.53
2018-06-17T09:46:58.049Z,12.63
2018-06-17T09:49:26.368Z,10.87
2018-06-17T09:51:54.701Z,9.40
2018-06-17T09:54:23.157Z,11.63
2018-06-17T09:56:51.619Z,10.43
2018-06-17T09:59:19.986Z,11.93
2018-06-17T10:01:48.451Z,10.93
2018-06-17T10:04:16.535Z,9.10
2018-06-17T10:06:44.982Z,11.87
2018-06-17T10:09:13.430Z,11.27
2018-06-17T10:11:41.771Z,10.53
2018-06-17T10:14:10.136Z,9.37
2018-06-17T10:16:38.455Z,13.67
2018-06-17T10:19:06.784Z,13.60
2018-06-17T10:21:35.080Z,14.40
2018-06-17T10:24:03.402Z,14.90
2018-06-17T10:26:31.756Z,10.20
2018-06-17T10:29:00.085Z,11.43
2018-06-17T10:31:28.497Z,10.50
2018-06-17T10:33:56.892Z,12.17
2018-06-17T10:36:25.196Z,6.47
2018-06-17T10:38:53.619Z,10.47
2018-06-17T10:41:21.924Z,10.97
2018-06-17T10:43:50.325Z,13.80
2018-06-17T10:46:18.661Z,8.77
2018-06-17T10:48:46.997Z,9.83
2018-06-17T10:51:15.316Z,11.20
2018-06-17T10:53:43.383Z,11.40
2018-06-17T10:56:11.452Z,9.30
2018-06-17T10:58:39.797Z,13.20
2018-06-17T11:01:08.127Z,11.33
2018-06-17T11:03:36.497Z,9.97
2018-06-17T11:06:04.817Z,17.40
2018-06-17T11:08:33.116Z,11.37
2018-06-17T11:11:01.575Z,12.50
2018-06-17T11:13:29.914Z,10.70
2018-06-17T11:15:58.268Z,13.43
2018-06-17T11:18:26.613Z,9.83
2018-06-17T11:20:55.056Z,11.27
2018-06-17T11:23:23.369Z,10.87
2018-06-17T11:25:51.727Z,16.70
2018-06-17T11:28:20.057Z,13.57
2018-06-17T11:30:48.359Z,10.47
2018-06-17T11:33:16.693Z,11.23
2018-06-17T11:35:45.062Z,14.73
2018-06-17T11:38:13.372Z,12.57
2018-06-17T11:40:41.671Z,10.57
2018-06-17T11:43:09.997Z,11.73
2018-06-17T11:45:38.304Z,12.97
2018-06-17T11:48:06.611Z,11.70
2018-06-17T11:50:34.931Z,10.30
2018-06-17T11:53:03.277Z,13.40
2018-06-17T11:55:31.674Z,12.70
2018-06-17T11:58:00.146Z,11.53
2018-06-17T12:00:28.453Z,12.50
2018-06-17T12:02:57.006Z,10.80
2018-06-17T12:05:25.390Z,11.40
2018-06-17T12:07:53.693Z,11.97
2018-06-17T12:10:22.024Z,13.77
2018-06-17T12:12:50.104Z,12.57
2018-06-17T12:15:18.190Z,10.83
2018-06-17T12:17:46.492Z,8.97
2018-06-17T12:20:14.862Z,11.37
2018-06-17T12:22:43.181Z,6.47
2018-06-17T12:25:11.500Z,10.07
2018-06-17T12:27:39.580Z,10.87
2018-06-17T12:30:07.860Z,9.10
2018-06-17T12:32:36.257Z,9.33
2018-06-17T12:35:05.285Z,10.20
2018-06-17T12:37:33.627Z,7.87
2018-06-17T12:40:01.934Z,13.00
2018-06-17T12:42:30.274Z,14.07
2018-06-17T12:44:58.713Z,16.10
2018-06-17T12:47:27.134Z,13.67
2018-06-17T12:49:56.056Z,13.43
2018-06-17T12:52:24.394Z,10.63
2018-06-17T12:54:52.793Z,11.33
2018-06-17T12:57:24.717Z,9.90
2018-06-17T12:59:53.117Z,12.97
2018-06-17T13:02:21.475Z,13.13
2018-06-17T13:04:49.889Z,8.50
2018-06-17T13:07:18.312Z,7.23
2018-06-17T13:09:46.637Z,12.37
2018-06-17T13:12:14.965Z,10.37
2018-06-17T13:14:43.349Z,10.57
2018-06-17T13:30:10.929Z,10.73
2018-06-17T13:32:39.301Z,9.73
2018-06-17T13:35:07.630Z,9.60
2018-06-17T13:37:35.963Z,10.97
2018-06-17T13:40:04.492Z,14.30
2018-06-17T13:42:32.827Z,12.80
2018-06-17T13:45:00.875Z,9.87
2018-06-17T13:47:29.071Z,13.30
2018-06-17T13:49:57.379Z,12.73
2018-06-17T13:52:25.822Z,12.83
2018-06-17T13:54:54.360Z,14.00
2018-06-17T13:57:22.749Z,10.73
2018-06-17T13:59:51.143Z,13.77
2018-06-17T14:02:19.496Z,14.73
2018-06-17T14:04:47.862Z,10.30
2018-06-17T14:07:16.247Z,10.83
2018-06-17T14:09:44.299Z,11.37
2018-06-17T14:12:12.664Z,11.17
2018-06-17T14:14:41.003Z,11.13
2018-06-17T14:17:09.356Z,12.70
2018-06-17T14:19:37.698Z,12.60
2018-06-17T14:22:06.075Z,10.80
2018-06-17T14:24:34.382Z,11.53
2018-06-17T14:27:02.763Z,10.37
2018-06-17T14:29:31.085Z,9.70
2018-06-17T14:31:59.440Z,10.20
2018-06-17T14:34:27.740Z,9.57
2018-06-17T14:36:56.126Z,11.43
2018-06-17T14:39:24.417Z,10.27
2018-06-17T14:41:57.960Z,12.63
2018-06-17T14:44:31.833Z,8.90
2018-06-17T14:47:05.565Z,9.57
2018-06-17T14:49:39.157Z,10.13
2018-06-17T14:52:12.938Z,9.63
2018-06-17T14:54:41.296Z,10.13
2018-06-17T14:57:09.412Z,12.30
2018-06-17T14:59:37.734Z,10.33
2018-06-17T15:02:06.080Z,11.83
2018-06-17T15:04:34.434Z,14.33
2018-06-17T15:07:02.481Z,12.40
2018-06-17T15:09:30.763Z,10.80
2018-06-17T15:11:59.092Z,12.23
2018-06-17T15:14:27.471Z,10.50
2018-06-17T15:16:55.750Z,8.43
2018-06-17T15:19:24.058Z,9.73
2018-06-17T15:21:52.375Z,10.77
2018-06-17T15:24:20.712Z,10.60
2018-06-17T15:26:49.046Z,10.73
2018-06-17T15:29:17.395Z,9.07
2018-06-17T15:31:51.285Z,9.77
2018-06-17T15:34:25.105Z,12.77
2018-06-17T15:36:58.801Z,10.93
2018-06-17T15:39:32.369Z,12.27
2018-06-17T15:42:00.424Z,12.13
2018-06-17T15:44:28.762Z,10.23
2018-06-17T15:46:57.119Z,12.47
2018-06-17T15:49:26.371Z,13.73
2018-06-17T15:51:54.719Z,15.37
2018-06-17T15:54:23.098Z,12.00
2018-06-17T15:56:51.400Z,13.17
2018-06-17T15:59:19.713Z,12.90
2018-06-17T16:01:48.042Z,16.03
2018-06-17T16:04:16.350Z,12.40
2018-06-17T16:06:45.457Z,15.00
2018-06-17T16:09:13.776Z,11.27
2018-06-17T16:11:47.586Z,14.17
2018-06-17T16:14:21.212Z,13.40
2018-06-17T16:16:54.767Z,12.87
2018-06-17T16:19:28.465Z,12.00
2018-06-17T16:21:56.944Z,12.93
2018-06-17T16:24:25.329Z,11.57
2018-06-17T16:26:53.629Z,10.50
2018-06-17T16:29:21.714Z,11.03
2018-06-17T16:31:50.061Z,9.83
2018-06-17T16:34:18.417Z,16.07
2018-06-17T16:36:46.741Z,9.63
2018-06-17T16:39:15.008Z,12.07
2018-06-17T16:41:43.345Z,13.23
2018-06-17T16:44:11.983Z,11.50
2018-06-17T16:46:41.376Z,10.50
2018-06-17T16:49:09.844Z,12.50
2018-06-17T16:51:43.529Z,9.43
2018-06-17T16:54:17.225Z,11.60
2018-06-17T16:56:51.038Z,9.40
2018-06-17T16:59:24.636Z,10.70
2018-06-17T17:01:52.960Z,9.53
2018-06-17T17:04:21.226Z,9.63
2018-06-17T17:06:49.638Z,10.90
2018-06-17T17:09:17.957Z,13.30
2018-06-17T17:11:46.261Z,12.83
2018-06-17T17:14:14.551Z,13.17
2018-06-17T17:16:42.842Z,13.33
2018-06-17T17:19:11.194Z,10.43
2018-06-17T17:21:39.516Z,12.07
2018-06-17T17:24:07.812Z,10.00
2018-06-17T17:26:36.135Z,10.57
2018-06-17T17:29:04.437Z,10.27
2018-06-17T17:31:38.172Z,11.73
2018-06-17T17:34:11.881Z,10.10
2018-06-17T17:36:45.676Z,10.20
2018-06-17T17:39:19.389Z,6.83
2018-06-17T17:41:47.784Z,11.50
2018-06-17T17:44:16.116Z,9.00
2018-06-17T17:46:49.960Z,14.07
2018-06-17T17:49:18.278Z,8.27
2018-06-17T17:51:46.593Z,10.07
2018-06-17T17:54:14.983Z,9.20
2018-06-17T17:56:43.316Z,8.20
2018-06-17T17:59:11.596Z,10.50
2018-06-17T18:01:39.649Z,8.03
2018-06-17T18:04:08.010Z,9.27
2018-06-17T18:06:37.225Z,10.43
2018-06-17T18:09:07.973Z,8.40
2018-06-17T18:11:36.316Z,8.60
2018-06-17T18:14:05.752Z,8.63
2018-06-17T18:16:34.062Z,10.40
2018-06-17T18:19:02.449Z,9.53
2018-06-17T18:21:30.735Z,8.37
2018-06-17T18:23:59.103Z,8.63
2018-06-17T18:26:32.833Z,9.97
2018-06-17T18:29:06.412Z,8.23
2018-06-17T18:31:40.133Z,10.60
2018-06-17T18:34:13.903Z,11.33
2018-06-17T18:36:42.242Z,8.43
2018-06-17T18:39:10.482Z,12.33
2018-06-17T18:41:38.837Z,10.07
2018-06-17T18:44:07.184Z,8.27
2018-06-17T18:46:35.496Z,12.33
2018-06-17T18:49:03.915Z,11.93
2018-06-17T18:51:32.227Z,8.80
2018-06-17T18:54:00.603Z,12.17
2018-06-17T18:56:28.909Z,13.40
2018-06-17T18:58:57.811Z,10.33
2018-06-17T19:01:26.744Z,11.37
2018-06-17T19:03:55.117Z,8.27
2018-06-17T19:06:23.416Z,7.90
2018-06-17T19:08:57.070Z,8.50
2018-06-17T19:11:30.806Z,12.23
2018-06-17T19:14:04.368Z,14.53
2018-06-17T19:16:38.039Z,13.93
2018-06-17T19:19:06.104Z,14.40
2018-06-17T19:21:34.153Z,11.40
2018-06-17T19:24:02.480Z,12.63
2018-06-17T19:26:30.816Z,9.70
2018-06-17T19:28:59.188Z,12.80
2018-06-17T19:31:27.460Z,9.57
2018-06-17T19:33:55.818Z,11.37
2018-06-17T19:36:24.094Z,11.60
2018-06-17T19:38:52.477Z,11.03
2018-06-17T19:41:20.842Z,7.83
2018-06-17T19:43:49.171Z,12.23
2018-06-17T19:46:17.529Z,9.47
2018-06-17T19:48:45.825Z,11.37
2018-06-17T19:51:19.605Z,14.00
2018-06-17T19:54:51.790Z,14.67
2018-06-17T19:57:25.412Z,13.97
2018-06-17T19:59:59.015Z,9.83
2018-06-17T20:02:27.430Z,14.53
2018-06-17T20:04:55.818Z,12.10
2018-06-17T20:07:24.228Z,9.93
2018-06-17T20:09:52.900Z,17.13
2018-06-17T20:12:22.348Z,8.83
2018-06-17T20:14:50.687Z,15.87
2018-06-17T20:17:19.038Z,12.53
2018-06-17T20:19:47.370Z,10.93
2018-06-17T20:22:15.697Z,10.87
2018-06-17T20:24:43.992Z,9.03
2018-06-17T20:27:12.043Z,14.23
2018-06-17T20:29:41.234Z,15.47
2018-06-17T20:32:14.944Z,15.53
2018-06-17T20:34:48.705Z,12.73
2018-06-17T20:37:22.301Z,12.77
2018-06-17T20:39:56.808Z,14.87
2018-06-17T20:42:30.376Z,10.53
2018-06-17T20:44:58.848Z,14.73
2018-06-17T20:47:27.146Z,11.73
2018-06-17T20:49:55.492Z,11.70
2018-06-17T20:52:23.827Z,11.43
2018-06-17T20:54:52.209Z,12.00
2018-06-17T20:57:20.541Z,13.80
2018-06-17T20:59:48.953Z,13.87
2018-06-17T21:02:17.257Z,10.87
2018-06-17T21:04:45.586Z,11.57
2018-06-17T21:07:13.856Z,14.17
2018-06-17T21:09:42.225Z,13.40
2018-06-17T21:12:10.542Z,13.87
2018-06-17T21:14:38.959Z,10.27
2018-06-17T21:17:07.285Z,12.23
2018-06-17T21:19:40.990Z,11.47
2018-06-17T21:22:14.749Z,14.17
2018-06-17T21:24:48.373Z,14.37
2018-06-17T21:27:22.062Z,13.37
2018-06-17T21:29:51.563Z,16.13
2018-06-17T21:32:20.261Z,12.83
2018-06-17T21:34:50.744Z,14.93
2018-06-17T21:37:19.085Z,14.73
2018-06-17T21:39:47.377Z,14.73
2018-06-17T21:42:15.668Z,14.27
2018-06-17T21:44:44.791Z,14.27
2018-06-17T21:47:13.153Z,13.30
2018-06-17T21:49:41.637Z,15.20
2018-06-17T21:52:09.925Z,15.00
2018-06-17T21:54:38.216Z,13.70
2018-06-17T21:57:06.587Z,17.23
2018-06-17T21:59:34.910Z,15.30
2018-06-17T22:02:03.250Z,13.80
2018-06-17T22:04:36.973Z,18.33
2018-06-17T22:07:05.306Z,15.23
2018-06-17T22:09:38.765Z,15.67
2018-06-17T22:12:12.381Z,13.20
2018-06-17T22:14:46.096Z,12.53
2018-06-17T22:17:19.829Z,11.17
2018-06-17T22:19:48.417Z,16.47
2018-06-17T22:22:16.924Z,10.10
2018-06-17T22:24:45.421Z,14.40
2018-06-17T22:27:13.828Z,11.77
2018-06-17T22:29:42.293Z,13.83
2018-06-17T22:32:10.583Z,12.83
2018-06-17T22:34:39.396Z,11.30
2018-06-17T22:37:07.957Z,14.93
2018-06-17T22:39:36.637Z,12.70
2018-06-17T22:42:04.920Z,12.50
2018-06-17T22:44:33.202Z,13.13
2018-06-17T22:47:01.491Z,11.70
2018-06-17T22:49:29.804Z,11.10
2018-06-17T22:51:58.108Z,11.53
2018-06-17T22:54:37.601Z,18.30
2018-06-17T22:57:11.175Z,13.00
2018-06-17T22:59:44.932Z,10.90
2018-06-17T23:02:18.617Z,14.50
2018-06-17T23:04:52.341Z,11.50
2018-06-17T23:07:26.083Z,11.17
2018-06-17T23:09:54.387Z,11.23
2018-06-17T23:12:22.653Z,10.30
2018-06-17T23:14:50.939Z,11.27
2018-06-17T23:17:19.216Z,14.43
2018-06-17T23:19:47.537Z,12.70
2018-06-17T23:22:15.820Z,10.53
2018-06-17T23:24:43.902Z,13.37
2018-06-17T23:27:12.197Z,14.13
2018-06-17T23:29:40.549Z,11.60
2018-06-17T23:32:08.855Z,11.83
2018-06-17T23:34:37.131Z,15.10
2018-06-17T23:37:06.268Z,17.83
2018-06-17T23:39:34.384Z,9.70
2018-06-17T23:42:02.680Z,10.30
2018-06-17T23:44:30.986Z,12.30
2018-06-17T23:47:04.853Z,11.40
2018-06-17T23:49:38.673Z,13.00
2018-06-17T23:52:12.287Z,9.80
2018-06-17T23:54:46.068Z,9.17
2018-06-17T23:57:14.376Z,10.60
2018-06-17T23:59:43.874Z,10.60
